Time;durP1;ratioP1;P1;durP2;ratioP2;P2;SDS_P1;SDS_P2;PMS_P1;PMS_P2;Temp;Humidity;BMP_temperature;BMP_pressure;BME280_temperature;BME280_humidity;BME280_pressure;Samples;Min_cycle;Max_cycle;Signal;HPM_P1;HPM_P2
2022/05/19 00:01:26;;;;;;;5.72;2.53;;;;;;;14.58;65.76;97225.16;10359246;28;20611;-74
2022/05/19 00:06:27;;;;;;;4.05;2.45;;;;;;;14.35;67.32;97243.47;10376294;28;20193;-75
2022/05/19 00:11:31;;;;;;;4.93;2.22;;;;;;;14.47;66.76;97223.69;10376580;28;20186;-75
2022/05/19 00:16:32;;;;;;;3.05;2.45;;;;;;;14.43;66.58;97223.19;10376027;28;20205;-76
2022/05/19 00:21:33;;;;;;;5.50;2.67;;;;;;;14.36;67.46;97234.59;10375822;28;20200;-76
2022/05/19 00:26:33;;;;;;;3.42;2.30;;;;;;;14.48;66.93;97221.88;10358017;28;20195;-75
2022/05/19 00:31:34;;;;;;;6.03;2.22;;;;;;;14.52;66.69;97212.66;10375553;28;20602;-74
2022/05/19 00:36:35;;;;;;;6.40;2.30;;;;;;;14.54;66.70;97224.66;10375189;28;20348;-75
2022/05/19 00:41:44;;;;;;;6.90;2.63;;;;;;;14.57;66.57;97211.13;10341702;28;20704;-75
2022/05/19 00:46:55;;;;;;;3.47;2.38;;;;;;;14.65;66.26;97215.59;10357189;28;20657;-75
2022/05/19 00:52:05;;;;;;;3.35;2.30;;;;;;;14.47;66.66;97215.75;10355736;28;20301;-74
2022/05/19 00:57:09;;;;;;;8.32;3.03;;;;;;;14.68;65.87;97201.25;10374352;28;20237;-74
2022/05/19 01:02:10;;;;;;;6.68;2.50;;;;;;;14.61;66.07;97204.56;10356263;28;20193;-75
2022/05/19 01:07:17;;;;;;;5.28;2.05;;;;;;;14.51;66.04;97201.28;10356156;28;20756;-75
2022/05/19 01:12:18;;;;;;;4.43;2.10;;;;;;;14.64;65.64;97184.97;10356828;28;20327;-75
2022/05/19 01:17:18;;;;;;;3.10;2.17;;;;;;;14.65;65.37;97183.94;10356046;28;20260;-75
2022/05/19 01:22:30;;;;;;;7.68;2.28;;;;;;;14.48;66.34;97201.59;10356164;28;20181;-75
2022/05/19 01:27:31;;;;;;;4.53;2.50;;;;;;;14.37;66.59;97199.34;10356092;28;20185;-74
2022/05/19 01:32:31;;;;;;;3.50;2.22;;;;;;;14.29;66.95;97197.53;10373266;28;20220;-74
2022/05/19 01:37:32;;;;;;;3.88;2.33;;;;;;;14.33;66.86;97190.13;10355694;28;20584;-75
2022/05/19 01:43:02;;;;;;;3.33;2.35;;;;;;;14.24;67.33;97190.13;10373048;28;20183;-74
2022/05/19 01:48:41;;;;;;;6.47;2.50;;;;;;;14.38;66.63;97179.88;10355313;28;20225;-74
2022/05/19 01:53:50;;;;;;;3.55;2.00;;;;;;;14.39;66.58;97184.97;10354129;28;20347;-74
2022/05/19 01:59:12;;;;;;;4.78;2.40;;;;;;;14.27;67.01;97188.97;10371466;28;20208;-75
2022/05/19 02:04:43;;;;;;;3.58;2.30;;;;;;;14.35;66.02;97164.41;10371951;28;20193;-75
2022/05/19 02:09:50;;;;;;;7.90;2.13;;;;;;;14.48;65.18;97150.69;10368414;28;20205;-74
2022/05/19 02:14:54;;;;;;;3.53;2.25;;;;;;;14.23;65.89;97162.13;10371893;28;20844;-75
2022/05/19 02:19:57;;;;;;;2.33;2.10;;;;;;;14.22;65.70;97144.66;10353750;28;20194;-75
2022/05/19 02:25:04;;;;;;;4.88;2.08;;;;;;;14.26;65.08;97139.91;10371348;28;20523;-75
2022/05/19 02:30:11;;;;;;;3.08;2.00;;;;;;;14.14;65.71;97152.59;10353629;28;20288;-75
2022/05/19 02:35:13;;;;;;;5.22;2.05;;;;;;;14.25;65.08;97143.53;10353536;28;20213;-75
2022/05/19 02:40:14;;;;;;;3.08;2.05;;;;;;;14.20;65.28;97135.31;10370919;28;20280;-75
2022/05/19 02:45:16;;;;;;;3.50;2.70;;;;;;;14.09;65.21;97142.56;10370442;28;20192;-74
2022/05/19 02:50:18;;;;;;;2.88;2.30;;;;;;;14.16;65.22;97140.06;10352893;28;20196;-76
2022/05/19 02:55:19;;;;;;;4.55;2.50;;;;;;;14.30;64.62;97135.91;10370080;28;20229;-76
2022/05/19 03:00:22;;;;;;;3.35;1.90;;;;;;;14.21;64.98;97139.56;10353000;28;20268;-76
2022/05/19 03:05:26;;;;;;;2.65;2.30;;;;;;;14.22;65.01;97141.22;10312514;28;20530;-76
2022/05/19 03:10:27;;;;;;;4.38;2.20;;;;;;;14.09;65.54;97155.75;10285500;28;20194;-75
2022/05/19 03:15:27;;;;;;;5.45;2.72;;;;;;;14.09;65.60;97153.09;10289454;28;20222;-75
2022/05/19 03:20:28;;;;;;;3.25;1.98;;;;;;;14.06;65.26;97147.38;10293955;28;20349;-75
2022/05/19 03:25:28;;;;;;;5.20;2.03;;;;;;;14.07;65.42;97151.63;10294136;28;20210;-75
2022/05/19 03:30:29;;;;;;;6.45;2.30;;;;;;;14.00;65.78;97171.75;10293340;28;20269;-75
2022/05/19 03:35:30;;;;;;;4.68;2.13;;;;;;;14.02;65.40;97165.28;10293806;28;20222;-75
2022/05/19 03:40:30;;;;;;;5.25;2.20;;;;;;;14.08;64.94;97158.53;10293080;28;20194;-75
2022/05/19 03:45:31;;;;;;;2.00;1.85;;;;;;;14.05;65.06;97153.63;10292806;28;20206;-75
2022/05/19 03:50:31;;;;;;;4.22;2.53;;;;;;;13.99;65.56;97172.72;10275350;28;20202;-75
2022/05/19 03:55:31;;;;;;;2.03;1.83;;;;;;;13.88;66.28;97189.69;10292522;28;20281;-75
2022/05/19 04:00:33;;;;;;;4.75;2.53;;;;;;;13.95;66.00;97188.03;10292684;28;20278;-75
2022/05/19 04:05:33;;;;;;;3.58;2.20;;;;;;;13.98;66.66;97192.13;10295712;28;20194;-75
2022/05/19 04:10:33;;;;;;;3.20;2.50;;;;;;;13.90;66.83;97196.44;10295024;28;20206;-75
2022/05/19 04:15:34;;;;;;;6.68;2.83;;;;;;;13.93;67.18;97205.00;10295412;28;20226;-75
2022/05/19 04:20:34;;;;;;;5.82;2.30;;;;;;;13.97;66.90;97208.94;10278326;28;20261;-75
2022/05/19 04:25:35;;;;;;;4.60;2.35;;;;;;;14.04;66.59;97202.84;10295326;28;20194;-75
2022/05/19 04:30:36;;;;;;;2.97;2.35;;;;;;;14.20;66.30;97204.63;10294861;28;20289;-75
2022/05/19 04:35:39;;;;;;;6.30;2.80;;;;;;;14.20;66.29;97207.25;10277772;28;20218;-75
2022/05/19 04:40:41;;;;;;;5.20;2.15;;;;;;;14.32;66.23;97213.03;10294630;28;20278;-75
2022/05/19 04:45:42;;;;;;;5.05;2.28;;;;;;;14.44;65.21;97189.75;10294447;28;20199;-74
2022/05/19 04:50:42;;;;;;;4.93;2.28;;;;;;;14.52;66.34;97204.75;10294224;28;20308;-74
2022/05/19 04:55:43;;;;;;;5.43;2.58;;;;;;;14.68;65.58;97203.88;10294268;28;20230;-74
2022/05/19 05:00:43;;;;;;;3.55;2.40;;;;;;;14.77;64.95;97193.13;10292820;28;20198;-74
2022/05/19 05:05:44;;;;;;;4.93;2.17;;;;;;;14.98;64.18;97170.63;10293924;28;20182;-74
2022/05/19 05:10:44;;;;;;;3.40;2.20;;;;;;;15.20;62.70;97147.91;10293748;28;20316;-75
2022/05/19 05:15:45;;;;;;;4.00;2.03;;;;;;;15.39;61.37;97129.94;10293528;28;20234;-75
2022/05/19 05:20:45;;;;;;;6.38;2.03;;;;;;;15.53;59.96;97105.44;10293384;28;20186;-75
2022/05/19 05:25:46;;;;;;;4.78;1.90;;;;;;;15.76;58.11;97071.03;10293050;28;20187;-74
2022/05/19 05:30:49;;;;;;;2.65;2.00;;;;;;;16.03;57.41;97059.06;10293306;28;20197;-75
2022/05/19 05:35:53;;;;;;;3.72;1.90;;;;;;;16.22;55.34;97031.25;10292388;28;20250;-75
2022/05/19 05:40:54;;;;;;;5.68;2.00;;;;;;;16.40;55.47;97038.78;10292371;28;20199;-75
2022/05/19 05:46:03;;;;;;;2.05;1.70;;;;;;;16.61;54.89;97031.09;10291955;28;20191;-75
2022/05/19 05:51:08;;;;;;;2.90;1.88;;;;;;;16.83;54.05;97027.47;10292289;28;20195;-75
2022/05/19 05:56:10;;;;;;;4.97;1.85;;;;;;;17.03;52.35;97000.38;10364505;28;20233;-75
2022/05/19 06:01:14;;;;;;;4.20;1.67;;;;;;;17.20;53.80;97038.81;10367106;28;20193;-75
2022/05/19 06:06:15;;;;;;;2.75;1.55;;;;;;;17.57;50.67;96973.28;10372495;28;20220;-75
2022/05/19 06:11:15;;;;;;;4.78;1.80;;;;;;;17.73;49.47;96958.91;10372000;28;20191;-76
2022/05/19 06:16:16;;;;;;;3.58;1.38;;;;;;;18.06;49.01;96965.44;10372148;28;20299;-75
2022/05/19 06:21:16;;;;;;;3.63;1.40;;;;;;;18.37;47.46;96927.78;10371615;28;20279;-75
2022/05/19 06:26:17;;;;;;;3.10;1.60;;;;;;;18.72;47.17;96935.59;10371429;28;20185;-75
2022/05/19 06:31:17;;;;;;;1.90;1.40;;;;;;;19.28;44.86;96893.72;10371433;28;20280;-75
2022/05/19 06:36:17;;;;;;;3.80;1.30;;;;;;;19.33;43.36;96854.91;10370884;28;20229;-75
2022/05/19 06:46:37;;;;;;;1.20;1.08;;;;;;;19.10;42.59;96844.75;10361839;28;20185;-75
2022/05/19 06:51:38;;;;;;;3.78;1.23;;;;;;;19.01;42.79;96852.09;10367787;28;20197;-75
2022/05/19 06:56:38;;;;;;;3.67;1.50;;;;;;;19.20;43.42;96881.47;10349590;28;20245;-76
2022/05/19 07:01:40;;;;;;;1.52;1.30;;;;;;;19.16;44.72;96907.66;10310915;28;20213;-75
2022/05/19 07:06:40;;;;;;;4.70;1.60;;;;;;;19.57;44.09;96911.03;10327611;28;20193;-75
2022/05/19 07:11:40;;;;;;;4.28;1.67;;;;;;;19.52;44.44;96913.50;10348975;28;20200;-75
2022/05/19 07:16:43;;;;;;;4.50;1.60;;;;;;;19.68;44.59;96928.16;10367783;28;20201;-75
2022/05/19 07:21:45;;;;;;;2.70;1.20;;;;;;;19.88;43.65;96901.56;10368174;28;20204;-75
2022/05/19 07:26:51;;;;;;;6.90;1.77;;;;;;;19.76;44.02;96902.19;10350272;28;20213;-75
2022/05/19 07:31:53;;;;;;;3.10;1.55;;;;;;;20.71;42.17;96878.59;10367630;28;20251;-75
2022/05/19 07:36:54;;;;;;;5.22;1.50;;;;;;;20.23;41.61;96851.47;10350210;28;20197;-75
2022/05/19 07:41:55;;;;;;;2.33;1.48;;;;;;;20.38;42.38;96874.28;10368164;28;20243;-75
2022/05/19 07:46:56;;;;;;;4.10;1.40;;;;;;;20.84;42.48;96886.44;10367994;28;20280;-75
2022/05/19 07:51:56;;;;;;;6.88;1.50;;;;;;;20.73;40.14;96818.75;10333679;28;20198;-75
2022/05/19 07:56:57;;;;;;;2.50;1.30;;;;;;;21.13;38.92;96780.25;10349912;28;20240;-75
2022/05/19 08:01:57;;;;;;;2.05;1.33;;;;;;;20.65;38.69;96769.28;10353830;28;20319;-74
2022/05/19 08:06:58;;;;;;;3.40;1.20;;;;;;;21.07;40.52;96839.75;10374965;28;20266;-75
2022/05/19 08:11:58;;;;;;;3.15;1.48;;;;;;;21.11;37.95;96766.34;10374659;28;20197;-75
2022/05/19 08:16:59;;;;;;;4.00;1.30;;;;;;;21.27;38.98;96803.06;10375305;28;20283;-75
2022/05/19 08:22:00;;;;;;;3.30;1.55;;;;;;;20.57;38.18;96752.75;10356541;28;20198;-75
2022/05/19 08:27:02;;;;;;;1.67;1.30;;;;;;;20.83;38.60;96781.00;10373544;28;20965;-75
2022/05/19 08:32:02;;;;;;;2.70;1.33;;;;;;;21.21;36.64;96732.03;10372475;28;20225;-75
2022/05/19 08:37:02;;;;;;;3.47;1.45;;;;;;;21.46;37.92;96774.53;10373543;28;20650;-75
2022/05/19 08:42:05;;;;;;;4.30;1.25;;;;;;;21.16;37.03;96743.34;10373997;28;20260;-75
2022/05/19 08:47:07;;;;;;;2.08;1.33;;;;;;;21.59;38.05;96783.44;10315607;28;20256;-75
2022/05/19 08:52:32;;;;;;;4.65;1.27;;;;;;;22.14;36.46;96753.13;10355848;28;20225;-75
2022/05/19 08:58:00;;;;;;;4.20;1.52;;;;;;;21.63;35.69;96696.66;10325874;28;20642;-76
2022/05/19 09:03:09;;;;;;;3.45;1.40;;;;;;;21.45;35.51;96682.28;10317321;28;20631;-75
2022/05/19 09:08:40;;;;;;;3.80;1.33;;;;;;;21.64;35.46;96693.75;10308546;28;20194;-75
2022/05/19 09:14:01;;;;;;;9.10;1.38;;;;;;;21.49;34.07;96640.84;10290384;28;20325;-76
2022/05/19 09:19:35;;;;;;;1.88;1.02;;;;;;;21.97;32.83;96609.72;10277959;28;20206;-76
2022/05/19 09:24:35;;;;;;;1.30;1.10;;;;;;;21.64;33.12;96613.78;10245959;28;20210;-75
2022/05/19 09:29:41;;;;;;;5.28;1.10;;;;;;;21.95;31.71;96571.81;10290608;28;20205;-75
2022/05/19 09:34:47;;;;;;;2.08;0.93;;;;;;;22.07;31.58;96572.63;10291346;28;20214;-76
2022/05/19 09:39:51;;;;;;;1.65;1.10;;;;;;;22.32;30.83;96552.09;10290747;28;20224;-76
2022/05/19 09:44:56;;;;;;;2.60;0.82;;;;;;;22.47;30.20;96557.72;10290360;28;20209;-76
2022/05/19 09:50:11;;;;;;;3.08;1.02;;;;;;;22.64;29.03;96520.41;10289157;28;20670;-76
2022/05/19 09:55:14;;;;;;;5.35;1.17;;;;;;;22.58;28.97;96516.84;10272481;28;20264;-76
2022/05/19 10:00:30;;;;;;;2.15;0.93;;;;;;;23.84;29.99;96605.06;10289406;28;20625;-75
2022/05/19 10:05:37;;;;;;;5.35;1.23;;;;;;;23.92;29.31;96574.44;10375059;28;20230;-75
2022/05/19 10:10:47;;;;;;;3.03;1.30;;;;;;;23.39;29.66;96561.31;10377919;28;20212;-75
2022/05/19 10:16:11;;;;;;;1.67;1.10;;;;;;;24.56;31.57;96676.56;10399887;28;20243;-76
2022/05/19 10:21:31;;;;;;;2.30;1.20;;;;;;;24.91;28.62;96575.47;10372003;28;20204;-76
2022/05/19 10:26:50;;;;;;;1.20;1.10;;;;;;;24.44;30.77;96642.91;10391919;28;20192;-76
2022/05/19 10:32:18;;;;;;;2.92;0.98;;;;;;;24.85;29.57;96603.28;10389486;28;20688;-76
2022/05/19 10:37:30;;;;;;;5.18;1.13;;;;;;;23.93;29.42;96571.53;10399011;28;20613;-75
2022/05/19 10:43:00;;;;;;;4.05;1.35;;;;;;;25.03;30.01;96627.06;10356587;28;20195;-76
2022/05/19 10:48:34;;;;;;;1.30;1.17;;;;;;;24.52;29.34;96583.56;10366924;28;20204;-76
2022/05/19 10:53:58;;;;;;;3.03;1.23;;;;;;;24.38;30.29;96624.09;10368717;28;20654;-76
2022/05/19 10:59:23;;;;;;;1.50;0.90;;;;;;;24.46;27.26;96493.53;10368206;28;20189;-76
2022/05/19 11:04:34;;;;;;;3.97;1.00;;;;;;;24.53;29.51;96591.38;10383207;28;20246;-75
2022/05/19 11:09:57;;;;;;;4.82;1.20;;;;;;;24.73;26.78;96480.16;10409849;28;20543;-76
2022/05/19 11:15:12;;;;;;;2.60;1.02;;;;;;;23.93;26.14;96420.91;10368878;28;20220;-75
2022/05/19 11:20:22;;;;;;;2.00;1.33;;;;;;;24.48;27.62;96505.59;10366468;28;20206;-75
2022/05/19 11:30:51;;;;;;;2.50;1.15;;;;;;;24.51;28.86;96561.31;10367444;28;20189;-76
2022/05/19 11:35:58;;;;;;;2.45;1.17;;;;;;;25.37;28.79;96584.00;10368628;28;20582;-75
2022/05/19 11:41:04;;;;;;;3.80;1.05;;;;;;;24.60;25.56;96419.78;10374454;28;20193;-73
2022/05/19 11:46:11;;;;;;;1.45;1.05;;;;;;;24.07;26.41;96424.81;10372885;28;20189;-73
2022/05/19 11:56:50;;;;;;;1.98;1.00;;;;;;;23.67;25.20;96369.72;10374359;28;20233;-74
2022/05/19 12:01:51;;;;;;;1.35;1.20;;;;;;;23.16;27.49;96428.63;10374139;28;20220;-75
2022/05/19 12:07:07;;;;;;;5.43;1.50;;;;;;;23.54;26.70;96408.34;10375122;28;20203;-74
2022/05/19 12:12:24;;;;;;;4.18;1.08;;;;;;;23.77;27.12;96436.72;10373786;28;20610;-75
2022/05/19 12:17:28;;;;;;;1.95;0.95;;;;;;;24.37;27.53;96491.28;10373404;28;20725;-75
2022/05/19 12:22:43;;;;;;;2.78;1.00;;;;;;;23.94;26.10;96396.56;10373779;28;20256;-74
2022/05/19 12:27:55;;;;;;;3.15;1.40;;;;;;;24.20;27.75;96469.94;10372499;28;20280;-75
2022/05/19 12:33:12;;;;;;;1.30;1.20;;;;;;;23.56;28.99;96480.28;10355423;28;20229;-75
2022/05/19 12:38:45;;;;;;;3.30;1.25;;;;;;;24.21;28.45;96476.91;10355542;28;20197;-75
2022/05/19 12:43:46;;;;;;;6.55;1.48;;;;;;;25.45;29.32;96569.31;10323012;28;20212;-74
2022/05/19 12:48:48;;;;;;;4.15;1.00;;;;;;;25.02;28.35;96506.69;10352710;28;20197;-74
2022/05/19 12:53:49;;;;;;;3.30;1.20;;;;;;;24.98;29.16;96522.50;10371690;28;20295;-76
2022/05/19 12:59:01;;;;;;;1.52;1.10;;;;;;;25.38;30.05;96571.41;10372806;28;20273;-75
2022/05/19 13:04:20;;;;;;;2.15;1.30;;;;;;;25.46;30.01;96566.38;10370519;28;20198;-75
2022/05/19 13:09:23;;;;;;;3.10;1.52;;;;;;;26.15;30.72;96621.13;10370032;28;20196;-76
2022/05/19 13:14:28;;;;;;;3.65;1.45;;;;;;;25.85;31.29;96624.38;10354647;28;20221;-76
2022/05/19 13:19:31;;;;;;;1.30;1.20;;;;;;;26.12;31.80;96648.47;10389579;28;20197;-76
2022/05/19 13:24:37;;;;;;;5.53;1.40;;;;;;;25.39;34.23;96693.69;10410290;28;20753;-76
2022/05/19 13:34:59;;;;;;;3.83;1.50;;;;;;;25.01;35.03;96690.84;10412123;28;20216;-74
2022/05/19 13:40:27;;;;;;;2.30;1.33;;;;;;;24.41;35.30;96662.97;10393893;28;20656;-75
2022/05/19 13:45:42;;;;;;;3.70;1.50;;;;;;;25.02;34.07;96646.06;10410864;28;20191;-75
2022/05/19 13:50:43;;;;;;;2.65;1.65;;;;;;;25.13;35.00;96669.28;10394329;28;20238;-75
2022/05/19 13:55:44;;;;;;;2.95;1.65;;;;;;;25.58;34.39;96652.06;10372884;28;20279;-75
2022/05/19 14:00:44;;;;;;;3.08;1.38;;;;;;;26.70;34.80;96702.34;10351834;28;20197;-74
2022/05/19 14:05:45;;;;;;;5.55;1.65;;;;;;;25.76;33.71;96617.88;10352664;28;20662;-75
2022/05/19 14:10:52;;;;;;;5.80;1.30;;;;;;;25.87;35.11;96673.25;10384952;28;20275;-74
2022/05/19 14:16:06;;;;;;;11.23;1.90;;;;;;;27.36;34.59;96711.78;10390814;28;20676;-76
2022/05/19 14:21:11;;;;;;;5.55;1.85;;;;;;;25.29;33.06;96576.41;10388928;28;20250;-75
2022/05/19 14:26:11;;;;;;;6.38;1.50;;;;;;;27.10;34.02;96675.09;10386962;28;20199;-75
2022/05/19 14:31:20;;;;;;;2.33;1.13;;;;;;;26.91;33.22;96620.97;10392224;28;20202;-74
2022/05/19 14:36:21;;;;;;;2.67;1.30;;;;;;;26.43;33.46;96613.78;10389729;28;20213;-75
2022/05/19 14:46:59;;;;;;;3.42;1.50;;;;;;;24.80;36.17;96612.06;10393667;28;20184;-74
2022/05/19 14:52:04;;;;;;;5.68;1.52;;;;;;;24.21;37.57;96626.81;10409114;28;20188;-74
2022/05/19 14:57:19;;;;;;;6.30;1.52;;;;;;;25.36;35.79;96609.22;10395358;28;20237;-74
2022/05/19 15:02:21;;;;;;;2.97;1.25;;;;;;;26.28;34.47;96594.88;10386352;28;20286;-74
2022/05/19 15:07:37;;;;;;;1.23;1.10;;;;;;;26.14;34.24;96576.56;10408622;28;20255;-74
2022/05/19 15:12:38;;;;;;;4.50;1.45;;;;;;;25.47;35.41;96577.94;10391386;28;20216;-74
2022/05/19 15:17:40;;;;;;;5.15;1.35;;;;;;;24.88;36.50;96592.06;10408832;28;20188;-74
2022/05/19 15:22:41;;;;;;;3.50;1.50;;;;;;;25.15;35.46;96562.59;10393578;28;20224;-74
2022/05/19 15:27:41;;;;;;;1.75;1.50;;;;;;;25.87;34.40;96559.72;10409400;28;20206;-74
2022/05/19 15:32:42;;;;;;;2.67;1.42;;;;;;;25.85;35.37;96591.34;10369286;28;20212;-74
2022/05/19 15:37:43;;;;;;;3.70;1.30;;;;;;;25.56;34.76;96559.47;10349829;28;20190;-74
2022/05/19 15:42:45;;;;;;;6.20;1.40;;;;;;;25.52;34.82;96543.09;10368137;28;20970;-74
2022/05/19 15:47:55;;;;;;;2.97;1.40;;;;;;;25.90;35.72;96578.78;10367034;28;20200;-75
2022/05/19 15:52:57;;;;;;;9.18;1.88;;;;;;;25.47;34.95;96556.47;10367288;28;21061;-74
2022/05/19 15:57:57;;;;;;;5.47;1.48;;;;;;;25.62;34.94;96532.44;10367297;28;20197;-75
2022/05/19 16:03:00;;;;;;;4.88;1.30;;;;;;;25.21;35.67;96532.06;10367328;28;20189;-76
2022/05/19 16:08:00;;;;;;;1.77;1.58;;;;;;;24.91;36.20;96533.41;10366269;28;20236;-76
2022/05/19 16:13:01;;;;;;;2.50;1.70;;;;;;;24.47;37.14;96554.03;10370109;28;20214;-75
2022/05/19 16:18:04;;;;;;;3.40;1.60;;;;;;;24.04;38.23;96572.47;10347298;28;20969;-75
2022/05/19 16:23:06;;;;;;;5.55;1.35;;;;;;;23.50;38.96;96578.31;10353138;28;20227;-75
2022/05/19 16:28:07;;;;;;;5.38;1.60;;;;;;;23.24;39.19;96580.56;10367254;28;20713;-73
2022/05/19 16:33:07;;;;;;;2.25;1.70;;;;;;;23.24;39.23;96583.25;10415799;28;20254;-73
2022/05/19 16:38:10;;;;;;;2.00;1.50;;;;;;;23.17;39.03;96571.91;10416205;28;20299;-73
2022/05/19 16:43:10;;;;;;;3.03;1.50;;;;;;;23.20;39.16;96575.94;10398316;28;20192;-74
2022/05/19 16:48:11;;;;;;;8.35;1.52;;;;;;;23.10;39.45;96584.59;10415742;28;20223;-74
2022/05/19 16:53:12;;;;;;;2.78;1.67;;;;;;;22.92;40.33;96605.06;10398323;28;20216;-74
2022/05/19 16:58:18;;;;;;;3.95;1.40;;;;;;;22.88;40.36;96605.78;10415582;28;20231;-74
2022/05/19 17:03:19;;;;;;;7.20;1.50;;;;;;;22.72;40.23;96602.00;10415408;28;20267;-75
2022/05/19 17:08:21;;;;;;;9.27;1.70;;;;;;;22.67;40.91;96609.94;10415248;28;20200;-75
2022/05/19 17:13:25;;;;;;;8.85;2.13;;;;;;;22.56;40.60;96600.91;10415409;28;20311;-75
2022/05/19 17:18:36;;;;;;;9.65;1.77;;;;;;;22.63;40.57;96604.22;10415180;28;20283;-75
2022/05/19 17:23:39;;;;;;;1.98;1.38;;;;;;;22.64;40.73;96608.53;10395695;28;20197;-75
2022/05/19 17:28:39;;;;;;;4.60;1.42;;;;;;;22.66;40.75;96609.09;10414577;28;20280;-75
2022/05/19 17:33:39;;;;;;;5.68;1.58;;;;;;;22.64;41.13;96613.88;10413924;28;20243;-75
2022/05/19 17:38:41;;;;;;;3.10;1.38;;;;;;;22.46;41.32;96630.03;10414322;28;20231;-75
2022/05/19 17:43:41;;;;;;;1.77;1.50;;;;;;;22.43;41.63;96642.81;10413867;28;20196;-75
2022/05/19 17:48:41;;;;;;;2.08;1.40;;;;;;;22.30;41.27;96626.19;10413824;28;20705;-75
2022/05/19 17:53:42;;;;;;;6.88;1.83;;;;;;;22.12;42.21;96637.81;10413221;28;20684;-75
2022/05/19 17:58:42;;;;;;;4.97;1.40;;;;;;;22.15;41.57;96621.34;10413532;28;20550;-75
2022/05/19 18:03:42;;;;;;;4.97;1.58;;;;;;;22.06;41.65;96628.88;10413663;28;20586;-75
2022/05/19 18:08:43;;;;;;;3.65;1.55;;;;;;;22.00;41.34;96614.59;10412198;28;20581;-75
2022/05/19 18:13:43;;;;;;;3.40;1.60;;;;;;;21.92;41.54;96618.44;10409880;28;20224;-74
2022/05/19 18:18:44;;;;;;;6.43;1.60;;;;;;;21.83;41.67;96619.81;10404488;28;20195;-74
2022/05/19 18:23:44;;;;;;;2.78;1.45;;;;;;;21.73;41.85;96627.59;10411075;28;20193;-75
2022/05/19 18:28:46;;;;;;;1.90;1.30;;;;;;;21.59;41.84;96621.63;10411536;28;20219;-75
2022/05/19 18:33:47;;;;;;;4.95;1.63;;;;;;;21.41;42.21;96621.66;10411511;28;20244;-75
2022/05/19 18:38:48;;;;;;;2.67;1.42;;;;;;;21.33;42.22;96620.13;10411086;28;20220;-75
2022/05/19 18:49:08;;;;;;;3.13;1.30;;;;;;;20.95;43.10;96631.91;10410887;28;20539;-75
2022/05/19 18:54:09;;;;;;;1.70;1.45;;;;;;;21.00;42.60;96624.88;10410181;28;20294;-75
2022/05/19 18:59:09;;;;;;;2.85;1.70;;;;;;;20.88;42.85;96604.59;10411934;28;20270;-76
2022/05/19 19:04:12;;;;;;;1.70;1.42;;;;;;;20.88;42.99;96597.41;10410410;28;20232;-75
2022/05/19 19:09:12;;;;;;;2.58;1.50;;;;;;;20.75;43.43;96602.88;10385291;28;20188;-75
2022/05/19 19:14:13;;;;;;;3.80;1.52;;;;;;;20.60;43.80;96614.72;10408826;28;20332;-74
2022/05/19 19:19:14;;;;;;;2.47;1.67;;;;;;;20.49;44.04;96628.78;10391983;28;20271;-75
2022/05/19 19:24:14;;;;;;;5.13;1.67;;;;;;;20.59;43.58;96626.38;10395152;28;20672;-75
2022/05/19 19:29:17;;;;;;;8.55;1.75;;;;;;;20.52;43.92;96631.00;10381391;28;20545;-75
2022/05/19 19:34:17;;;;;;;4.40;1.50;;;;;;;20.33;44.53;96661.28;10406615;28;20700;-75
2022/05/19 19:39:17;;;;;;;5.68;1.67;;;;;;;20.64;43.92;96660.31;10406962;28;20279;-75
2022/05/19 19:44:18;;;;;;;5.50;1.50;;;;;;;20.70;43.87;96675.44;10388156;28;20230;-75
2022/05/19 19:49:18;;;;;;;4.05;1.65;;;;;;;20.46;44.45;96680.56;10407511;28;20192;-75
2022/05/19 19:54:19;;;;;;;2.78;1.85;;;;;;;20.25;45.03;96675.66;10407225;28;20221;-74
2022/05/19 19:59:20;;;;;;;4.82;1.70;;;;;;;20.09;45.73;96687.66;10396883;28;20188;-75
2022/05/19 20:04:22;;;;;;;2.53;1.83;;;;;;;20.12;45.75;96696.03;10416787;28;20218;-74
2022/05/19 20:09:25;;;;;;;6.57;2.00;;;;;;;19.97;46.50;96714.16;10416126;28;20196;-76
2022/05/19 20:14:25;;;;;;;4.53;2.03;;;;;;;19.96;46.99;96737.25;10416470;28;20216;-74
2022/05/19 20:19:27;;;;;;;7.38;2.10;;;;;;;19.94;47.34;96730.56;10396916;28;20220;-74
2022/05/19 20:24:27;;;;;;;1.90;1.55;;;;;;;19.80;47.67;96743.13;10414051;28;20661;-75
2022/05/19 20:29:28;;;;;;;5.97;1.83;;;;;;;19.80;47.73;96756.41;10396243;28;20275;-75
2022/05/19 20:34:28;;;;;;;4.13;1.63;;;;;;;19.81;48.35;96773.16;10375342;28;20224;-75
2022/05/19 20:39:29;;;;;;;5.10;1.67;;;;;;;19.73;48.65;96779.53;10374185;28;20204;-76
2022/05/19 20:44:29;;;;;;;2.35;1.70;;;;;;;19.78;48.57;96790.34;10374153;28;20193;-75
2022/05/19 20:49:31;;;;;;;1.92;1.52;;;;;;;19.90;48.64;96814.41;10374312;28;20280;-75
2022/05/19 20:54:31;;;;;;;6.82;2.30;;;;;;;20.96;51.31;97028.53;10374602;28;20773;-74
2022/05/19 20:59:33;;;;;;;12.00;2.35;;;;;;;21.12;56.25;97095.69;10414186;28;20212;-76
2022/05/19 21:04:34;;;;;;;19.02;2.95;;;;;;;20.64;60.63;97119.03;10414599;28;20195;-75
2022/05/19 21:09:34;;;;;;;6.53;2.20;;;;;;;20.13;66.58;97106.47;10414091;28;20271;-75
2022/05/19 21:14:34;;;;;;;12.95;2.17;;;;;;;19.81;70.22;97098.31;10415573;28;20216;-75
2022/05/19 21:19:35;;;;;;;5.47;1.90;;;;;;;19.66;73.26;97089.69;10414916;28;20188;-75
2022/05/19 21:29:54;;;;;;;8.18;2.10;;;;;;;19.27;77.47;97083.38;10414735;28;20197;-75
2022/05/19 21:34:55;;;;;;;9.25;2.20;;;;;;;19.01;80.50;97084.94;10414364;28;20700;-75
2022/05/19 21:39:55;;;;;;;10.85;2.13;;;;;;;18.64;86.94;97087.88;10414132;28;20192;-74
2022/05/19 21:44:55;;;;;;;8.95;2.50;;;;;;;18.40;94.30;97075.94;10413774;28;20267;-75
2022/05/19 21:49:57;;;;;;;7.78;2.20;;;;;;;18.15;100.00;97065.81;10413954;28;20731;-74
2022/05/19 21:55:12;;;;;;;15.50;2.67;;;;;;;18.21;100.00;97050.97;10413289;28;20236;-74
2022/05/19 22:00:30;;;;;;;4.25;2.70;;;;;;;17.81;100.00;97030.31;10413825;28;20546;-75
2022/05/19 22:05:32;;;;;;;7.72;3.15;;;;;;;17.38;100.00;97024.28;10413168;28;20199;-74
2022/05/19 22:10:33;;;;;;;9.95;2.60;;;;;;;16.99;100.00;97020.31;10395215;28;20197;-75
2022/05/19 22:15:34;;;;;;;8.85;2.83;;;;;;;16.85;100.00;96980.44;10378347;28;20217;-77
2022/05/19 22:20:34;;;;;;;5.97;2.58;;;;;;;16.76;100.00;96977.09;10410941;28;20196;-77
2022/05/19 22:25:35;;;;;;;4.70;2.33;;;;;;;16.74;100.00;96949.22;10412525;28;20191;-77
2022/05/19 22:30:35;;;;;;;6.38;2.47;;;;;;;16.68;100.00;96929.63;10412282;28;20189;-76
2022/05/19 22:35:35;;;;;;;2.58;2.13;;;;;;;16.81;100.00;96928.91;10411702;28;20270;-77
2022/05/19 22:40:36;;;;;;;5.97;2.03;;;;;;;16.85;100.00;96935.47;10412322;28;20195;-76
2022/05/19 22:45:36;;;;;;;3.67;2.00;;;;;;;16.96;100.00;96910.34;10411369;28;20188;-76
2022/05/19 22:50:39;;;;;;;3.50;2.10;;;;;;;17.08;100.00;96922.03;10393640;28;20261;-76
2022/05/19 22:55:40;;;;;;;6.90;2.10;;;;;;;16.93;100.00;96921.31;10410868;28;20712;-77
2022/05/19 23:00:41;;;;;;;4.35;1.88;;;;;;;16.99;100.00;96928.47;10410989;28;20716;-76
2022/05/19 23:05:42;;;;;;;3.30;2.10;;;;;;;16.94;100.00;96917.66;10411495;28;20263;-76
2022/05/19 23:10:42;;;;;;;7.40;2.47;;;;;;;16.73;100.00;96932.50;10410734;28;20181;-76
2022/05/19 23:15:43;;;;;;;4.80;2.83;;;;;;;16.80;100.00;96932.59;10377023;28;20601;-76
2022/05/19 23:20:43;;;;;;;3.88;2.00;;;;;;;16.87;100.00;96927.38;10410702;28;20556;-75
2022/05/19 23:25:43;;;;;;;4.85;1.75;;;;;;;16.94;100.00;96944.13;10410742;28;20189;-76
2022/05/19 23:30:44;;;;;;;3.35;1.92;;;;;;;17.12;100.00;96935.72;10412040;28;20660;-75
2022/05/19 23:35:49;;;;;;;3.97;1.70;;;;;;;17.18;100.00;96936.75;10400729;28;20606;-76
2022/05/19 23:40:50;;;;;;;3.03;1.15;;;;;;;17.41;100.00;96932.03;10419179;28;20193;-75
2022/05/19 23:45:51;;;;;;;1.40;1.30;;;;;;;17.51;100.00;96944.13;10400754;28;20200;-75
2022/05/19 23:50:51;;;;;;;2.17;1.42;;;;;;;17.58;100.00;96944.97;10418686;28;20310;-76
2022/05/19 23:55:51;;;;;;;1.30;1.20;;;;;;;17.51;100.00;96950.22;10417963;28;20240;-74
